Terminal Aerodrome Forecast
Issued by NWS

Home | Current Version | Previous Version | Graphics & Text | Print | Product List | Glossary On
Versions: 1 2 3 4 5 6 7 8 9 10 11 12 13 14 15 16 17 18 19 20 21 22 23 24 25 26 27 28 29 30 31 32
000
FTUS43 KLOT 220500
TAFDPA
TAF
KDPA 220538Z 2206/2306 19012KT P6SM VCSH OVC020 WS018/22045KT
      TEMPO 2207/2209 4SM -FZRA OVC013
     FM221000 20012KT 6SM -SHRA OVC012
     FM221200 20011KT 4SM -DZ VCSH OVC007
     FM222000 20012KT 6SM BR OVC010
     FM230100 20013KT 4SM BR OVC007=

USA.gov is the U.S. government's official web portal to all federal, state and local government web resources and services.